Time;durP1;ratioP1;P1;durP2;ratioP2;P2;SDS_P1;SDS_P2;PMS_P1;PMS_P2;Temp;Humidity;BMP_temperature;BMP_pressure;BME280_temperature;BME280_humidity;BME280_pressure;Samples;Min_cycle;Max_cycle;Signal;HPM_P1;HPM_P2
2021/03/07 00:01:46;;;;;;;7.53;2.58;;;7.70;93.10;;;;;;4806370;29;20122;-87
2021/03/07 00:04:13;;;;;;;7.82;2.80;;;7.70;93.20;;;;;;4795841;29;20084;-87
2021/03/07 00:06:38;;;;;;;6.32;2.78;;;7.70;93.40;;;;;;4803597;29;20055;-85
2021/03/07 00:09:04;;;;;;;6.53;2.80;;;7.70;93.40;;;;;;4804495;29;20129;-84
2021/03/07 00:11:29;;;;;;;9.18;3.17;;;7.60;93.60;;;;;;4804019;29;20118;-85
2021/03/07 00:13:55;;;;;;;9.88;4.72;;;7.60;93.70;;;;;;4805683;29;20046;-84
2021/03/07 00:16:21;;;;;;;7.80;3.67;;;7.60;93.80;;;;;;4802898;29;20035;-85
2021/03/07 00:18:47;;;;;;;11.13;3.53;;;7.50;93.80;;;;;;4803901;29;20076;-85
2021/03/07 00:21:15;;;;;;;11.90;4.18;;;7.50;94.00;;;;;;4804083;29;20122;-85
2021/03/07 00:23:41;;;;;;;8.25;4.50;;;7.50;94.10;;;;;;4803941;29;20065;-84
2021/03/07 00:26:06;;;;;;;10.23;3.80;;;7.40;94.30;;;;;;4805624;29;20501;-84
2021/03/07 00:28:32;;;;;;;8.25;4.25;;;7.40;94.40;;;;;;4803600;29;20043;-84
2021/03/07 00:30:58;;;;;;;6.43;3.85;;;7.30;94.30;;;;;;4802466;29;20480;-85
2021/03/07 00:33:23;;;;;;;6.75;4.10;;;7.40;94.40;;;;;;4802953;29;20057;-86
2021/03/07 00:35:49;;;;;;;6.13;3.42;;;7.50;94.30;;;;;;4803483;29;20117;-84
2021/03/07 00:38:15;;;;;;;10.95;3.78;;;7.20;94.20;;;;;;4805633;29;20350;-84
2021/03/07 00:40:42;;;;;;;7.85;3.45;;;7.20;94.20;;;;;;4803425;29;20641;-83
2021/03/07 00:43:08;;;;;;;9.30;3.20;;;7.30;94.10;;;;;;4802433;29;20055;-83
2021/03/07 00:45:34;;;;;;;9.38;3.20;;;7.50;94.00;;;;;;4803946;29;20130;-86
2021/03/07 00:47:59;;;;;;;9.93;3.28;;;7.40;93.80;;;;;;4803442;29;20047;-84
2021/03/07 00:50:25;;;;;;;6.95;2.70;;;7.50;93.80;;;;;;4802624;29;20038;-84
2021/03/07 00:52:52;;;;;;;10.68;3.45;;;7.50;93.70;;;;;;4804948;29;20092;-85
2021/03/07 00:55:18;;;;;;;11.13;3.80;;;7.60;93.60;;;;;;4803826;29;20414;-84
2021/03/07 00:57:44;;;;;;;6.35;3.08;;;7.50;93.70;;;;;;4804305;29;20058;-86
2021/03/07 01:00:19;;;;;;;10.90;3.35;;;7.40;93.60;;;;;;4803677;29;20047;-84
2021/03/07 01:02:45;;;;;;;5.30;3.10;;;7.40;93.70;;;;;;4803064;29;20070;-83
2021/03/07 01:05:11;;;;;;;9.02;3.50;;;7.40;93.80;;;;;;4803135;29;20069;-86
2021/03/07 01:07:37;;;;;;;7.70;3.00;;;7.40;93.80;;;;;;4803074;29;20046;-83
2021/03/07 01:10:19;;;;;;;12.73;3.97;;;7.40;93.90;;;;;;4803521;29;20034;-85
2021/03/07 01:12:47;;;;;;;8.18;3.47;;;7.30;94.00;;;;;;4803126;29;20039;-84
2021/03/07 01:15:13;;;;;;;10.60;3.28;;;7.30;93.90;;;;;;4802908;29;20047;-84
2021/03/07 01:17:38;;;;;;;6.22;3.00;;;7.30;94.00;;;;;;4803389;29;20472;-84
2021/03/07 01:20:12;;;;;;;8.75;3.60;;;7.30;94.10;;;;;;4804591;29;20657;-84
2021/03/07 01:22:38;;;;;;;6.55;3.30;;;7.20;94.10;;;;;;4787438;29;20110;-85
2021/03/07 01:25:06;;;;;;;7.47;3.47;;;7.20;94.20;;;;;;4802429;29;20086;-86
2021/03/07 01:27:31;;;;;;;;;;;7.20;94.20;;;;;;4807067;29;20081;-85
2021/03/07 01:29:57;;;;;;;7.93;3.40;;;7.20;94.20;;;;;;4801797;29;19949;-83
2021/03/07 01:32:22;;;;;;;8.77;3.17;;;7.30;94.20;;;;;;4802649;29;20038;-84
2021/03/07 01:34:48;;;;;;;6.18;2.83;;;7.30;94.20;;;;;;4805123;29;20470;-84
2021/03/07 01:37:14;;;;;;;6.60;3.47;;;7.20;94.10;;;;;;4803118;29;20357;-86
2021/03/07 01:39:39;;;;;;;6.70;3.38;;;7.20;94.10;;;;;;4801951;29;20041;-86
2021/03/07 01:42:10;;;;;;;8.10;3.40;;;7.20;94.10;;;;;;4802059;29;20039;-83
2021/03/07 01:44:36;;;;;;;8.80;3.63;;;7.20;94.20;;;;;;4802952;29;20042;-83
2021/03/07 01:47:03;;;;;;;9.07;3.13;;;7.10;94.00;;;;;;4803830;29;20027;-84
2021/03/07 01:49:28;;;;;;;10.05;3.08;;;7.00;93.90;;;;;;4803540;29;20157;-83
2021/03/07 01:51:55;;;;;;;7.30;3.17;;;7.00;93.70;;;;;;4802581;29;20669;-84
2021/03/07 01:54:20;;;;;;;4.80;3.00;;;6.90;93.40;;;;;;4788882;29;20043;-84
2021/03/07 01:56:47;;;;;;;10.38;3.47;;;7.10;93.40;;;;;;4802426;29;20670;-81
2021/03/07 01:59:15;;;;;;;6.25;3.33;;;7.10;93.30;;;;;;4804868;29;20055;-83
2021/03/07 02:01:41;;;;;;;;;;;7.10;93.30;;;;;;4803369;29;20061;-82
2021/03/07 02:04:06;;;;;;;5.45;2.97;;;7.10;93.30;;;;;;4801382;29;20352;-83
2021/03/07 02:06:33;;;;;;;6.28;2.70;;;7.10;93.40;;;;;;4801570;29;20145;-82
2021/03/07 02:08:59;;;;;;;9.02;2.90;;;7.00;93.30;;;;;;4802698;29;20034;-83
2021/03/07 02:11:25;;;;;;;5.57;3.03;;;7.00;93.50;;;;;;4802224;29;20045;-83
2021/03/07 02:13:51;;;;;;;5.47;3.08;;;6.90;93.50;;;;;;4804672;29;20084;-84
2021/03/07 02:16:21;;;;;;;13.35;2.88;;;7.00;93.40;;;;;;4803955;29;20059;-84
2021/03/07 02:18:50;;;;;;;6.75;2.60;;;6.90;93.20;;;;;;4805666;29;20517;-85
2021/03/07 02:21:19;;;;;;;7.30;2.10;;;6.90;92.90;;;;;;4805494;29;20042;-84
2021/03/07 02:24:06;;;;;;;7.45;2.13;;;6.80;92.20;;;;;;4806503;29;20146;-82
2021/03/07 02:26:34;;;;;;;4.80;1.90;;;6.70;92.40;;;;;;4805862;29;20031;-84
2021/03/07 02:29:01;;;;;;;;;;;6.40;91.70;;;;;;4791802;29;20071;-83
2021/03/07 02:31:27;;;;;;;4.50;1.73;;;6.50;91.80;;;;;;4804775;29;20275;-82
2021/03/07 02:34:05;;;;;;;7.47;1.88;;;6.50;91.90;;;;;;4805798;29;20125;-82
2021/03/07 02:36:33;;;;;;;7.80;1.67;;;6.70;91.80;;;;;;4817650;29;20087;-82
2021/03/07 02:39:03;;;;;;;7.53;1.63;;;6.80;91.60;;;;;;4823544;29;20078;-82
2021/03/07 02:41:30;;;;;;;6.35;1.83;;;6.70;91.40;;;;;;4823620;29;20035;-81
2021/03/07 02:43:59;;;;;;;8.82;2.22;;;6.40;91.40;;;;;;4825597;29;20058;-83
2021/03/07 02:46:25;;;;;;;5.35;2.08;;;6.20;91.80;;;;;;4807122;29;20054;-83
2021/03/07 02:48:56;;;;;;;9.15;2.22;;;6.20;92.00;;;;;;4823393;29;20499;-84
2021/03/07 02:51:28;;;;;;;6.57;2.10;;;6.30;91.80;;;;;;4823628;29;20054;-84
2021/03/07 02:53:56;;;;;;;5.82;1.85;;;6.20;91.70;;;;;;4823944;29;20113;-83
2021/03/07 02:56:26;;;;;;;7.13;1.52;;;6.30;91.90;;;;;;4823323;29;20034;-82
2021/03/07 02:58:56;;;;;;;5.07;2.00;;;6.40;91.70;;;;;;4824952;29;20109;-82
2021/03/07 03:01:23;;;;;;;6.78;2.00;;;6.30;91.90;;;;;;4822581;29;20065;-82
2021/03/07 03:03:50;;;;;;;6.93;2.03;;;6.10;91.90;;;;;;4823067;29;20106;-84
2021/03/07 03:06:17;;;;;;;9.00;2.30;;;6.00;92.10;;;;;;4806860;29;20046;-83
2021/03/07 03:08:53;;;;;;;7.97;2.10;;;6.10;92.30;;;;;;4823190;29;20066;-84
2021/03/07 03:11:23;;;;;;;8.35;1.92;;;6.30;92.30;;;;;;4808460;29;20034;-84
2021/03/07 03:13:50;;;;;;;5.68;2.05;;;6.30;92.10;;;;;;4806574;29;20042;-83
2021/03/07 03:16:21;;;;;;;7.50;1.80;;;6.30;92.20;;;;;;4806458;29;20038;-82
2021/03/07 03:18:48;;;;;;;5.53;2.33;;;6.30;92.20;;;;;;4806611;29;20038;-83
2021/03/07 03:21:14;;;;;;;8.88;2.30;;;6.00;92.70;;;;;;4822282;29;20057;-82
2021/03/07 03:23:40;;;;;;;9.73;1.90;;;6.00;92.80;;;;;;4823092;29;20349;-83
2021/03/07 03:26:09;;;;;;;8.68;2.22;;;6.10;92.90;;;;;;4808503;29;20129;-83
2021/03/07 03:28:38;;;;;;;3.80;2.45;;;6.20;92.70;;;;;;4822328;29;20034;-83
2021/03/07 03:31:04;;;;;;;6.38;2.08;;;6.00;92.90;;;;;;4806547;29;20034;-82
2021/03/07 03:33:30;;;;;;;6.93;2.15;;;6.10;93.00;;;;;;4822650;29;20108;-82
2021/03/07 03:35:56;;;;;;;3.45;2.03;;;6.10;92.90;;;;;;4822735;29;20038;-84
2021/03/07 03:38:29;;;;;;;5.63;2.15;;;6.10;92.90;;;;;;4822771;29;20030;-83
2021/03/07 03:40:57;;;;;;;8.57;2.28;;;5.80;93.10;;;;;;4808337;29;20034;-82
2021/03/07 03:43:24;;;;;;;3.65;1.98;;;5.90;93.00;;;;;;4822760;29;20114;-83
2021/03/07 03:45:55;;;;;;;6.00;2.47;;;6.00;93.10;;;;;;4806519;29;20049;-83
2021/03/07 03:48:25;;;;;;;8.07;2.40;;;6.10;92.70;;;;;;4806403;29;20125;-83
2021/03/07 03:50:52;;;;;;;5.32;2.10;;;5.80;92.90;;;;;;4821909;29;20042;-83
2021/03/07 03:53:20;;;;;;;6.90;2.20;;;6.00;93.20;;;;;;4808264;29;20125;-83
2021/03/07 03:55:48;;;;;;;7.18;2.13;;;6.00;92.90;;;;;;4807038;29;20048;-83
2021/03/07 03:58:15;;;;;;;;;;;6.10;92.80;;;;;;4822963;29;20133;-83
2021/03/07 04:00:42;;;;;;;7.75;2.53;;;6.20;92.70;;;;;;4805941;29;20391;-84
2021/03/07 04:03:13;;;;;;;8.23;2.33;;;6.00;92.50;;;;;;4805482;29;20181;-85
2021/03/07 04:05:45;;;;;;;10.10;2.55;;;5.90;92.60;;;;;;4805940;29;20031;-85
2021/03/07 04:08:13;;;;;;;6.35;2.35;;;6.00;92.70;;;;;;4807697;29;20041;-83
2021/03/07 04:10:41;;;;;;;9.15;2.10;;;6.10;92.60;;;;;;4781762;29;20091;-84
2021/03/07 04:13:10;;;;;;;;;;;5.90;92.80;;;;;;4823134;29;20081;-85
2021/03/07 04:15:38;;;;;;;6.65;2.45;;;5.90;92.90;;;;;;4806264;29;19939;-85
2021/03/07 04:18:05;;;;;;;3.45;2.08;;;5.90;92.80;;;;;;4806027;29;20100;-85
2021/03/07 04:20:31;;;;;;;7.53;2.08;;;6.00;92.80;;;;;;4822186;29;20409;-84
2021/03/07 04:22:57;;;;;;;10.68;2.50;;;6.10;92.70;;;;;;4823820;29;20018;-85
2021/03/07 04:25:23;;;;;;;6.03;2.47;;;6.00;92.60;;;;;;4822191;29;20049;-85
2021/03/07 04:27:50;;;;;;;9.95;2.33;;;6.00;92.70;;;;;;4822286;29;20465;-86
2021/03/07 04:30:16;;;;;;;5.53;2.05;;;5.80;92.80;;;;;;4822380;29;20466;-84
2021/03/07 04:32:43;;;;;;;6.43;2.70;;;5.90;92.90;;;;;;4805609;29;20046;-83
2021/03/07 04:35:11;;;;;;;7.88;2.30;;;5.80;92.80;;;;;;4828254;29;20038;-84
2021/03/07 04:37:37;;;;;;;4.53;2.38;;;6.00;92.80;;;;;;4806179;29;20041;-86
2021/03/07 04:40:03;;;;;;;6.60;2.20;;;6.10;92.70;;;;;;4821620;29;20350;-86
2021/03/07 04:42:29;;;;;;;5.53;2.13;;;6.10;92.60;;;;;;4821585;29;20159;-83
2021/03/07 04:44:55;;;;;;;7.03;2.42;;;5.80;92.70;;;;;;4821996;29;20125;-84
2021/03/07 04:47:20;;;;;;;7.20;2.42;;;5.90;92.90;;;;;;4822184;29;20033;-83
2021/03/07 04:49:46;;;;;;;5.82;2.28;;;6.10;92.70;;;;;;4807446;29;20031;-84
2021/03/07 04:52:12;;;;;;;10.07;2.33;;;5.90;92.50;;;;;;4822173;29;20086;-86
2021/03/07 04:54:37;;;;;;;7.07;2.78;;;5.70;92.70;;;;;;4821520;29;20457;-84
2021/03/07 04:57:06;;;;;;;5.28;2.42;;;5.70;92.90;;;;;;4821610;29;20034;-84
2021/03/07 04:59:32;;;;;;;10.68;2.17;;;5.80;93.00;;;;;;4805456;29;20035;-87
2021/03/07 05:01:58;;;;;;;3.80;2.20;;;5.80;92.70;;;;;;4807312;29;20035;-81
2021/03/07 05:04:24;;;;;;;7.00;2.08;;;5.80;92.70;;;;;;4805167;29;20077;-82
2021/03/07 05:06:50;;;;;;;3.70;2.40;;;5.70;92.60;;;;;;4821630;29;20052;-83
2021/03/07 05:09:16;;;;;;;4.97;2.28;;;5.80;92.80;;;;;;4821707;29;20081;-84
2021/03/07 05:11:42;;;;;;;11.13;2.80;;;5.60;93.00;;;;;;4821290;29;20326;-83
2021/03/07 05:14:08;;;;;;;6.35;2.67;;;5.70;92.80;;;;;;4807271;29;20457;-83
2021/03/07 05:16:34;;;;;;;9.27;2.75;;;5.60;92.80;;;;;;4805189;29;20039;-84
2021/03/07 05:19:02;;;;;;;8.40;2.13;;;5.70;92.80;;;;;;4806144;29;20049;-84
2021/03/07 05:21:34;;;;;;;11.32;2.78;;;5.70;92.80;;;;;;4823011;29;20042;-84
2021/03/07 05:24:00;;;;;;;7.75;2.75;;;5.80;92.80;;;;;;4825616;29;20071;-84
2021/03/07 05:26:27;;;;;;;9.55;2.55;;;5.60;92.80;;;;;;4826700;29;20027;-85
2021/03/07 05:28:53;;;;;;;3.97;2.20;;;5.50;93.00;;;;;;4808040;29;20027;-84
2021/03/07 05:31:19;;;;;;;7.50;2.40;;;5.50;93.00;;;;;;4822059;29;20060;-83
2021/03/07 05:33:45;;;;;;;12.07;2.60;;;5.50;93.00;;;;;;4805496;29;20513;-83
2021/03/07 05:36:11;;;;;;;5.63;2.88;;;5.50;93.00;;;;;;4821721;29;20044;-83
2021/03/07 05:38:38;;;;;;;10.02;2.88;;;5.50;93.00;;;;;;4821479;29;20030;-83
2021/03/07 05:41:05;;;;;;;13.87;3.03;;;5.40;93.00;;;;;;4806497;29;20030;-83
2021/03/07 05:43:31;;;;;;;3.67;2.28;;;5.40;93.20;;;;;;4804980;29;20270;-83
2021/03/07 05:45:56;;;;;;;5.95;2.88;;;5.50;93.10;;;;;;4821297;29;20067;-83
2021/03/07 05:48:22;;;;;;;6.57;2.63;;;5.60;93.10;;;;;;4821068;29;20414;-82
2021/03/07 05:50:47;;;;;;;6.10;2.50;;;5.50;93.00;;;;;;4820731;29;20436;-85
2021/03/07 05:53:13;;;;;;;9.52;2.70;;;5.40;93.20;;;;;;4806531;29;20026;-85
2021/03/07 05:55:39;;;;;;;6.72;2.50;;;5.30;93.30;;;;;;4821066;29;20042;-83
2021/03/07 05:58:07;;;;;;;9.60;2.90;;;5.40;93.40;;;;;;4804466;29;20126;-84
2021/03/07 06:00:33;;;;;;;8.40;3.00;;;5.50;93.30;;;;;;4804557;29;20034;-82
2021/03/07 06:02:59;;;;;;;5.03;2.90;;;5.30;93.30;;;;;;4804165;29;20048;-83
2021/03/07 06:05:25;;;;;;;7.30;2.53;;;5.30;93.80;;;;;;4803967;29;20369;-83
2021/03/07 06:07:51;;;;;;;7.38;3.38;;;5.40;93.50;;;;;;4806242;29;20035;-84
2021/03/07 06:10:23;;;;;;;7.80;3.08;;;5.30;93.50;;;;;;4820417;29;20460;-87
2021/03/07 06:13:19;;;;;;;6.85;2.95;;;5.10;94.00;;;;;;4820478;29;20046;-85
2021/03/07 06:15:47;;;;;;;7.93;2.75;;;5.20;93.80;;;;;;4801600;29;20057;-85
2021/03/07 06:18:14;;;;;;;11.18;3.30;;;5.20;94.00;;;;;;4804421;29;20179;-85
2021/03/07 06:20:40;;;;;;;8.15;3.70;;;5.20;93.90;;;;;;4804880;29;20038;-85
2021/03/07 06:23:07;;;;;;;8.55;3.00;;;5.30;93.90;;;;;;4806218;29;20026;-86
2021/03/07 06:25:47;;;;;;;6.13;3.22;;;5.30;93.80;;;;;;4804168;29;20521;-83
2021/03/07 06:28:24;;;;;;;5.45;2.53;;;5.20;93.70;;;;;;4820768;29;20063;-84
2021/03/07 06:30:50;;;;;;;8.90;2.92;;;5.30;93.80;;;;;;4804732;29;20487;-82
2021/03/07 06:33:33;;;;;;;7.80;3.05;;;5.30;93.70;;;;;;4820177;29;20054;-80
2021/03/07 06:36:19;;;;;;;5.85;3.10;;;5.40;93.70;;;;;;4820525;29;20038;-83
2021/03/07 06:39:00;;;;;;;9.63;3.03;;;5.20;93.70;;;;;;4803558;29;20049;-82
2021/03/07 06:41:29;;;;;;;9.23;3.00;;;5.20;93.80;;;;;;4820367;29;20037;-85
2021/03/07 06:44:13;;;;;;;12.25;3.03;;;5.20;93.80;;;;;;4822014;29;20091;-83
2021/03/07 06:46:44;;;;;;;9.88;3.13;;;5.30;93.70;;;;;;4804468;29;20049;-86
2021/03/07 06:49:29;;;;;;;9.88;3.05;;;5.30;93.60;;;;;;4803952;29;20536;-82
2021/03/07 06:52:09;;;;;;;6.28;2.95;;;5.40;93.50;;;;;;4804409;29;20079;-80
2021/03/07 06:54:35;;;;;;;7.10;3.40;;;5.50;93.40;;;;;;4820421;29;20473;-82
2021/03/07 06:57:01;;;;;;;6.90;3.00;;;5.50;93.30;;;;;;4804162;29;20061;-81
2021/03/07 06:59:26;;;;;;;8.75;3.63;;;5.50;93.20;;;;;;4820644;29;20034;-82
2021/03/07 07:01:55;;;;;;;8.20;3.22;;;5.50;93.20;;;;;;4822286;29;20034;-88
2021/03/07 07:04:22;;;;;;;4.43;2.75;;;5.60;93.30;;;;;;4822151;29;20522;-84
2021/03/07 07:07:00;;;;;;;9.85;3.30;;;5.60;93.10;;;;;;4823435;29;20069;-82
2021/03/07 07:09:26;;;;;;;9.93;3.22;;;5.60;93.00;;;;;;4807223;29;20051;-79
2021/03/07 07:11:54;;;;;;;6.40;3.35;;;5.70;93.00;;;;;;4822731;29;20049;-83
2021/03/07 07:15:04;;;;;;;8.35;3.20;;;5.50;92.90;;;;;;4825204;29;20042;-83
2021/03/07 07:17:30;;;;;;;9.02;3.33;;;5.50;93.00;;;;;;4772942;29;20418;-80
2021/03/07 07:19:56;;;;;;;8.68;3.65;;;5.50;93.00;;;;;;4824937;29;20484;-83
2021/03/07 07:22:22;;;;;;;12.80;3.38;;;5.50;92.90;;;;;;4823342;29;20061;-83
2021/03/07 07:24:49;;;;;;;6.13;2.92;;;5.50;92.90;;;;;;4807357;29;20111;-83
2021/03/07 07:27:15;;;;;;;11.13;3.25;;;5.60;92.90;;;;;;4823906;29;20458;-84
2021/03/07 07:29:41;;;;;;;31.35;15.68;;;5.60;92.90;;;;;;4807414;29;20046;-83
2021/03/07 07:32:29;;;;;;;7.45;2.72;;;5.70;92.90;;;;;;4808988;29;20099;-84
2021/03/07 07:34:57;;;;;;;;;;;5.40;92.90;;;;;;4823833;29;20042;-85
2021/03/07 07:37:45;;;;;;;12.18;2.63;;;5.50;92.70;;;;;;4807407;29;20363;-83
2021/03/07 07:40:12;;;;;;;;;;;5.60;92.70;;;;;;4808717;29;20727;-83
2021/03/07 07:42:38;;;;;;;4.55;2.33;;;5.60;92.50;;;;;;4807264;29;19912;-84
2021/03/07 07:45:09;;;;;;;8.30;2.58;;;5.50;92.10;;;;;;4809622;29;20045;-85
2021/03/07 07:47:45;;;;;;;10.52;4.03;;;5.50;92.10;;;;;;4823782;29;20027;-86
2021/03/07 07:50:35;;;;;;;9.07;3.10;;;5.50;92.20;;;;;;4808229;29;20031;-88
2021/03/07 07:53:06;;;;;;;7.00;2.10;;;5.50;91.90;;;;;;4822378;29;20046;-80
2021/03/07 07:55:58;;;;;;;5.28;2.53;;;5.40;92.00;;;;;;4823172;29;20473;-85
2021/03/07 07:58:36;;;;;;;5.28;1.98;;;5.50;91.90;;;;;;4803245;29;20035;-84
2021/03/07 08:01:05;;;;;;;8.00;2.58;;;5.40;91.60;;;;;;4821518;29;20046;-85
2021/03/07 08:03:35;;;;;;;4.47;2.33;;;5.50;91.50;;;;;;4822647;29;20077;-78
2021/03/07 08:06:11;;;;;;;6.63;2.45;;;5.60;91.20;;;;;;4806057;29;20087;-77
2021/03/07 08:08:39;;;;;;;5.55;2.30;;;5.60;90.90;;;;;;4822965;29;20045;-83
2021/03/07 08:11:25;;;;;;;6.20;2.22;;;5.70;90.70;;;;;;4824415;29;20058;-84
2021/03/07 08:13:58;;;;;;;6.30;1.95;;;5.70;90.30;;;;;;4806604;29;20046;-77
2021/03/07 08:16:41;;;;;;;6.15;2.35;;;5.90;90.30;;;;;;4802713;29;20042;-82
2021/03/07 08:19:10;;;;;;;4.68;2.20;;;5.70;89.30;;;;;;4807814;29;20038;-84
2021/03/07 08:21:58;;;;;;;5.28;2.00;;;5.80;89.70;;;;;;4823455;29;20052;-83
2021/03/07 08:24:25;;;;;;;6.95;1.95;;;5.70;88.20;;;;;;4823764;29;20125;-88
2021/03/07 08:26:53;;;;;;;3.42;2.08;;;5.90;87.70;;;;;;4808589;29;20122;-89
2021/03/07 08:29:47;;;;;;;5.20;1.95;;;5.80;87.70;;;;;;4809869;29;20042;-81
2021/03/07 08:32:40;;;;;;;6.28;2.10;;;5.90;87.00;;;;;;4808399;29;20038;-86
2021/03/07 08:35:24;;;;;;;6.53;2.28;;;6.00;85.80;;;;;;4803643;29;20496;-85
2021/03/07 08:38:11;;;;;;;6.72;2.00;;;6.10;85.60;;;;;;4824333;29;20126;-86
2021/03/07 08:40:38;;;;;;;5.82;2.00;;;6.10;87.20;;;;;;4806477;29;20482;-85
2021/03/07 08:43:23;;;;;;;5.57;2.40;;;6.20;88.10;;;;;;4824276;29;20042;-86
2021/03/07 08:46:12;;;;;;;6.22;2.22;;;6.10;88.80;;;;;;4823551;29;20338;-80
2021/03/07 08:48:45;;;;;;;5.38;2.45;;;6.20;89.40;;;;;;4824587;29;20066;-81
2021/03/07 08:51:11;;;;;;;3.33;2.40;;;6.00;89.50;;;;;;4823646;29;20034;-86
2021/03/07 08:53:40;;;;;;;10.52;2.83;;;6.10;89.80;;;;;;4809231;29;20348;-85
2021/03/07 08:56:06;;;;;;;5.88;2.50;;;6.20;89.40;;;;;;4815672;29;20018;-89
2021/03/07 08:58:32;;;;;;;8.88;2.88;;;6.20;89.20;;;;;;4813534;29;20121;-85
2021/03/07 09:00:58;;;;;;;10.35;2.50;;;6.20;89.10;;;;;;4832885;29;20039;-88
2021/03/07 09:03:26;;;;;;;8.57;2.88;;;6.40;88.80;;;;;;4814787;29;20148;-85
2021/03/07 09:05:52;;;;;;;7.57;3.65;;;6.30;88.20;;;;;;4823291;29;20030;-86
2021/03/07 09:08:23;;;;;;;4.55;2.00;;;6.40;88.30;;;;;;4809867;29;20142;-84
2021/03/07 09:10:51;;;;;;;4.82;2.20;;;6.20;87.50;;;;;;4823759;29;20042;-87
2021/03/07 09:16:44;;;;;;;7.85;2.70;;;6.20;88.10;;;;;;4819734;29;20172;-88
2021/03/07 09:19:39;;;;;;;10.10;2.60;;;6.20;88.00;;;;;;4806628;29;20046;-86
2021/03/07 09:22:10;;;;;;;11.65;2.60;;;6.30;87.60;;;;;;4808396;29;20172;-89
2021/03/07 09:24:36;;;;;;;5.88;2.35;;;6.30;87.60;;;;;;4808159;29;20125;-87
2021/03/07 09:27:12;;;;;;;5.60;2.67;;;6.40;87.00;;;;;;4824473;29;20389;-84
2021/03/07 09:29:52;;;;;;;5.80;1.77;;;6.30;87.00;;;;;;4807484;29;20377;-86
2021/03/07 09:32:50;;;;;;;5.15;2.00;;;6.40;86.70;;;;;;4825294;29;20473;-89
2021/03/07 09:35:26;;;;;;;2.97;1.60;;;6.40;86.40;;;;;;4791556;29;20053;-84
2021/03/07 09:37:54;;;;;;;6.38;2.00;;;6.50;85.90;;;;;;4823117;29;20034;-86
2021/03/07 09:40:20;;;;;;;8.30;2.20;;;6.30;85.20;;;;;;4806465;29;20069;-78
2021/03/07 09:42:57;;;;;;;7.80;2.05;;;6.40;89.20;;;;;;4823960;29;20381;-84
2021/03/07 09:45:23;;;;;;;5.78;1.60;;;6.50;87.10;;;;;;4806692;29;20354;-81
2021/03/07 09:47:50;;;;;;;4.90;2.20;;;6.50;86.50;;;;;;4823252;29;20090;-85
2021/03/07 09:50:17;;;;;;;6.90;1.95;;;6.60;86.40;;;;;;4824226;29;20026;-79
2021/03/07 09:52:45;;;;;;;13.07;2.67;;;6.80;85.40;;;;;;4822484;29;20050;-82
2021/03/07 09:55:11;;;;;;;;;;;6.80;84.30;;;;;;4823001;29;20119;-82
2021/03/07 09:57:37;;;;;;;7.25;2.05;;;6.70;83.90;;;;;;4822485;29;20339;-81
2021/03/07 10:00:04;;;;;;;4.15;1.67;;;6.80;83.80;;;;;;4805680;29;20049;-81
2021/03/07 10:02:35;;;;;;;6.68;1.90;;;6.70;83.60;;;;;;4821887;29;20038;-80
2021/03/07 10:05:10;;;;;;;6.35;1.65;;;6.60;83.70;;;;;;4824190;29;20403;-80
2021/03/07 10:07:36;;;;;;;5.40;1.65;;;6.70;83.90;;;;;;4806410;29;20042;-81
2021/03/07 10:10:21;;;;;;;4.60;1.35;;;6.80;83.00;;;;;;4822255;29;20051;-81
2021/03/07 10:12:57;;;;;;;2.10;1.30;;;6.80;82.30;;;;;;4822248;29;20051;-85
2021/03/07 10:15:35;;;;;;;3.58;1.40;;;6.80;82.30;;;;;;4805984;29;20041;-83
2021/03/07 10:18:17;;;;;;;;;;;6.90;81.70;;;;;;4806068;29;20031;-85
2021/03/07 10:20:48;;;;;;;5.60;1.77;;;6.90;81.10;;;;;;4822249;29;20014;-84
2021/03/07 10:23:15;;;;;;;4.82;1.77;;;6.80;81.10;;;;;;4823884;29;20033;-81
2021/03/07 10:25:46;;;;;;;7.85;1.92;;;6.80;81.10;;;;;;4822286;29;20354;-86
2021/03/07 10:28:24;;;;;;;4.78;2.33;;;6.80;81.20;;;;;;4807221;29;20054;-89
2021/03/07 10:30:53;;;;;;;5.65;2.22;;;6.90;81.70;;;;;;4808204;29;20129;-84
2021/03/07 10:33:31;;;;;;;1.52;1.27;;;7.00;81.20;;;;;;4807488;29;20455;-88
2021/03/07 10:36:17;;;;;;;2.97;1.60;;;7.00;80.70;;;;;;4824016;29;20034;-84
2021/03/07 10:38:47;;;;;;;5.28;1.92;;;6.90;81.00;;;;;;4826497;29;20030;-81
2021/03/07 10:41:18;;;;;;;2.75;1.83;;;7.00;81.40;;;;;;4827028;29;20082;-82
2021/03/07 10:43:55;;;;;;;7.50;2.15;;;7.10;81.50;;;;;;4824945;29;20049;-81
2021/03/07 10:46:33;;;;;;;4.47;2.15;;;7.10;81.60;;;;;;4825282;29;20448;-80
2021/03/07 10:49:06;;;;;;;6.88;2.10;;;7.10;81.70;;;;;;4826494;29;20038;-86
2021/03/07 10:51:32;;;;;;;3.80;1.90;;;7.10;81.30;;;;;;4809901;29;20077;-88
2021/03/07 10:53:58;;;;;;;6.57;1.80;;;7.20;81.40;;;;;;4810441;29;20480;-84
2021/03/07 10:56:29;;;;;;;8.00;1.95;;;7.00;80.80;;;;;;4826637;29;20030;-82
2021/03/07 10:58:55;;;;;;;6.43;2.10;;;7.00;80.80;;;;;;4826796;29;20113;-82
2021/03/07 11:01:20;;;;;;;5.60;1.80;;;7.00;80.90;;;;;;4808986;29;20137;-81
2021/03/07 11:03:47;;;;;;;4.70;2.10;;;6.90;80.40;;;;;;4824886;29;20553;-81
2021/03/07 11:06:12;;;;;;;5.35;2.42;;;6.80;80.40;;;;;;4825008;29;20039;-82
2021/03/07 11:08:39;;;;;;;3.00;1.90;;;6.90;80.30;;;;;;4824905;29;20271;-79
2021/03/07 11:11:06;;;;;;;6.13;2.20;;;6.80;80.20;;;;;;4828521;29;20026;-88
2021/03/07 11:13:32;;;;;;;4.18;2.20;;;7.00;81.10;;;;;;4825439;29;20081;-86
2021/03/07 11:15:57;;;;;;;5.13;2.47;;;6.90;79.60;;;;;;4825138;29;20385;-81
2021/03/07 11:18:23;;;;;;;7.30;2.75;;;6.70;79.70;;;;;;4825242;29;20046;-83
2021/03/07 11:20:49;;;;;;;7.70;2.70;;;6.60;80.20;;;;;;4809808;29;20038;-88
2021/03/07 11:23:16;;;;;;;3.70;1.98;;;6.70;80.40;;;;;;4828624;29;20031;-87
2021/03/07 11:25:42;;;;;;;5.20;2.25;;;6.60;80.10;;;;;;4809734;29;20125;-82
2021/03/07 11:28:07;;;;;;;4.05;2.00;;;6.70;80.60;;;;;;4824195;29;20180;-79
2021/03/07 11:30:34;;;;;;;5.63;1.98;;;6.80;80.50;;;;;;4808699;29;20186;-83
2021/03/07 11:33:00;;;;;;;11.02;2.45;;;6.90;80.40;;;;;;4810128;29;20046;-86
2021/03/07 11:35:25;;;;;;;7.32;2.70;;;6.80;80.10;;;;;;4809276;29;20517;-86
2021/03/07 11:37:52;;;;;;;18.27;4.05;;;6.90;80.40;;;;;;4810554;29;20122;-82
2021/03/07 11:40:18;;;;;;;6.45;2.90;;;7.10;80.00;;;;;;4824458;29;20099;-85
2021/03/07 11:42:43;;;;;;;7.43;2.60;;;6.90;79.90;;;;;;4824584;29;20481;-86
2021/03/07 11:45:09;;;;;;;5.72;2.80;;;6.80;79.80;;;;;;4824944;29;20481;-86
2021/03/07 11:47:35;;;;;;;6.45;2.53;;;6.80;79.90;;;;;;4825020;29;20026;-87
2021/03/07 11:50:00;;;;;;;6.85;2.60;;;6.80;80.00;;;;;;4826650;29;20030;-88
2021/03/07 11:52:26;;;;;;;8.30;3.00;;;6.70;79.90;;;;;;4825700;29;20051;-84
2021/03/07 11:54:52;;;;;;;7.22;2.42;;;6.60;79.50;;;;;;4808954;29;20054;-84
2021/03/07 11:57:18;;;;;;;6.00;2.80;;;6.70;80.00;;;;;;4807826;29;20042;-83
2021/03/07 11:59:44;;;;;;;9.23;3.75;;;6.80;80.30;;;;;;4824420;29;20111;-88
2021/03/07 12:02:10;;;;;;;7.85;3.10;;;6.80;79.80;;;;;;4810994;29;20134;-88
2021/03/07 12:04:36;;;;;;;9.93;3.67;;;6.70;79.30;;;;;;4824773;29;20445;-84
2021/03/07 12:07:02;;;;;;;10.35;3.97;;;6.70;79.70;;;;;;4823984;29;20389;-85
2021/03/07 12:09:28;;;;;;;9.57;3.90;;;6.70;79.50;;;;;;4823853;29;20042;-83
2021/03/07 12:11:54;;;;;;;5.40;2.85;;;6.80;79.10;;;;;;4807547;29;20061;-83
2021/03/07 12:14:21;;;;;;;7.07;3.80;;;7.00;79.00;;;;;;4825377;29;20026;-80
2021/03/07 12:16:46;;;;;;;6.07;3.55;;;6.80;78.60;;;;;;4807965;29;20098;-79
2021/03/07 12:19:12;;;;;;;12.55;4.18;;;6.90;78.60;;;;;;4807544;29;20039;-81
2021/03/07 12:21:38;;;;;;;9.90;4.07;;;6.80;78.60;;;;;;4824302;29;20053;-85
2021/03/07 12:24:04;;;;;;;10.07;4.40;;;6.90;78.90;;;;;;4808130;29;20050;-84
2021/03/07 12:26:29;;;;;;;8.75;4.18;;;6.70;78.80;;;;;;4824191;29;20422;-82
2021/03/07 12:28:55;;;;;;;12.93;3.72;;;7.00;79.30;;;;;;4825498;29;20091;-80
2021/03/07 12:31:21;;;;;;;8.98;4.18;;;7.10;78.90;;;;;;4823906;29;20046;-82
2021/03/07 12:33:46;;;;;;;8.18;4.05;;;7.10;79.00;;;;;;4807893;29;20030;-89
2021/03/07 12:36:12;;;;;;;7.50;3.42;;;7.30;79.10;;;;;;4808343;29;20440;-79
2021/03/07 12:38:37;;;;;;;7.32;3.38;;;7.30;78.60;;;;;;4823011;29;20493;-80
2021/03/07 12:41:03;;;;;;;7.85;3.53;;;7.50;79.30;;;;;;4825228;29;20027;-79
2021/03/07 12:43:29;;;;;;;7.15;3.30;;;7.70;78.00;;;;;;4822768;29;20042;-81
2021/03/07 12:45:54;;;;;;;11.43;3.78;;;7.60;77.50;;;;;;4823074;29;20050;-80
2021/03/07 12:48:20;;;;;;;5.45;3.13;;;7.60;77.60;;;;;;4806739;29;20041;-80
2021/03/07 12:50:45;;;;;;;10.57;3.88;;;7.80;77.50;;;;;;4822983;29;20050;-81
2021/03/07 12:53:11;;;;;;;6.28;4.10;;;7.70;76.80;;;;;;4808815;29;20034;-82
2021/03/07 12:55:38;;;;;;;10.00;3.50;;;7.80;76.80;;;;;;4807075;29;20038;-86
2021/03/07 12:58:04;;;;;;;8.25;3.40;;;7.80;77.00;;;;;;4823262;29;20432;-88
2021/03/07 13:00:29;;;;;;;4.45;3.20;;;7.90;76.70;;;;;;4822466;29;20042;-84
2021/03/07 13:02:55;;;;;;;7.38;3.83;;;8.10;76.30;;;;;;4822900;29;20376;-82
2021/03/07 13:05:21;;;;;;;8.05;3.72;;;7.80;76.00;;;;;;4823150;29;20272;-77
2021/03/07 13:07:46;;;;;;;9.65;3.85;;;8.00;76.20;;;;;;4824634;29;20351;-81
2021/03/07 13:10:14;;;;;;;14.15;5.03;;;8.10;76.30;;;;;;4823088;29;20350;-80
2021/03/07 13:12:40;;;;;;;14.13;4.22;;;8.40;76.30;;;;;;4822544;29;20087;-79